• Join FlightAware (Why Join?)
  • Login
  • US Flag 
03:05AM EDT


 

Airport Tracker/Info


-or-


 

Live Flight TrackerFlight Track Log ✈ CTL61 ✈ 25-Apr-2013 ✈ KCRW - KOSU

Flight Track Log - Related Links

Times and Time Zones

All times are in EDT time to prevent confusion due to time zone crossing. See the CTL61 flight status page for this flight to view local times or setup timezone preferences in your user account.

Time Position Orientation Groundspeed Altitude Reporting Facility
EDT Latitude Longitude Course Direction KTS MPH feet Rate Location/Type
12:00AM 38.4367 -81.6736 326° Northwest 108 124 4,800  Level Indianapolis Center
12:01AM 38.4622 -81.6944 327° Northwest 109 125 5,700 600 Climbing Indianapolis Center
12:02AM 38.4903 -81.7183 326° Northwest 116 133 6,100 120 Climbing Indianapolis Center
12:03AM 38.5821 -81.7668 327° Northwest  Level FlightAware Approximate
12:03AM 38.5253 -81.7478 327° Northwest 143 165 6,000  Level Indianapolis Center
12:04AM 38.6182 -81.7973 327° Northwest  Level FlightAware Approximate
12:04AM 38.5619 -81.7775 328° Northwest 152 175 6,100  Level Indianapolis Center
12:05AM 38.5964 -81.8092 324° Northwest 152 175 6,000 -60 Descending Indianapolis Center
12:06AM 38.6319 -81.8397 326° Northwest 152 175 6,000  Level Indianapolis Center
12:07AM 38.6672 -81.8714 325° Northwest 153 176 6,000  Level Indianapolis Center
12:08AM 38.7042 -81.9014 328° Northwest 157 181 6,000  Level Indianapolis Center
12:09AM 38.7417 -81.9317 328° Northwest 158 182 6,000  Level Indianapolis Center
12:10AM 38.7794 -81.9639 326° Northwest 161 185 6,000 -60 Level Indianapolis Center
12:11AM 38.8264 -82.0017 328° Northwest 164 189 5,900  Descending Indianapolis Center
12:12AM 38.8656 -82.0319 329° Northwest 164 189 6,000  Climbing Indianapolis Center
12:13AM 38.9039 -82.0647 326° Northwest 164 189 6,000  Level Indianapolis Center
12:14AM 38.9419 -82.0967 327° Northwest 163 188 6,000  Level Indianapolis Center
12:15AM 38.9806 -82.1297 326° Northwest 167 192 6,000  Level Indianapolis Center
12:16AM 39.0189 -82.1617 327° Northwest 164 189 6,000 -60 Level Indianapolis Center
12:17AM 39.0569 -82.1950 326° Northwest 164 189 5,900 -60 Descending Indianapolis Center
12:18AM 39.0950 -82.2286 326° Northwest 165 190 5,900  Level Indianapolis Center
12:19AM 39.1331 -82.2600 327° Northwest 162 186 6,000  Climbing Indianapolis Center
12:20AM 39.1722 -82.2922 327° Northwest 166 191 6,000  Level Indianapolis Center
12:21AM 39.2111 -82.3239 328° Northwest 165 190 6,000  Level Indianapolis Center
12:22AM 39.2497 -82.3572 326° Northwest 166 191 6,000  Level Indianapolis Center
12:23AM 39.2886 -82.3897 327° Northwest 166 191 6,000 -60 Level Indianapolis Center
12:24AM 39.3258 -82.4239 325° Northwest 165 190 5,900  Descending Indianapolis Center
12:25AM 39.3650 -82.4572 327° Northwest 167 192 6,000  Climbing Indianapolis Center
12:26AM 39.4094 -82.4947 327° Northwest 169 194 6,000  Level Indianapolis Center
12:26AM 39.4225 -82.5047 329° Northwest 169 194 6,000  Level Indianapolis Center
12:27AM 39.4464 -82.5233 329° Northwest 169 194 6,000  Level Indianapolis Center
12:28AM 39.4836 -82.5597 323° Northwest 167 192 6,000 -60 Level Indianapolis Center
12:29AM 39.5236 -82.5911 329° Northwest 165 190 5,900 -60 Descending Indianapolis Center
12:30AM 39.5611 -82.6222 327° Northwest 164 189 5,900  Level Indianapolis Center
12:31AM 39.5989 -82.6561 325° Northwest 163 188 6,000  Climbing Indianapolis Center
12:32AM 39.6383 -82.6931 324° Northwest 162 186 6,000  Level Indianapolis Center
12:33AM 39.6739 -82.7239 326° Northwest 162 186 6,000  Level Indianapolis Center
12:34AM 39.7114 -82.7578 325° Northwest 160 184 6,000  Level Indianapolis Center
12:35AM 39.7508 -82.7922 326° Northwest 159 183 6,000 -180 Level Indianapolis Center
12:36AM 39.7894 -82.8258 326° Northwest 162 186 5,700 -420 Descending Indianapolis Center
12:37AM 39.8261 -82.8575 326° Northwest 173 199 5,200 -600 Descending Indianapolis Center
12:38AM 39.8708 -82.8958 327° Northwest 174 200 4,600 -600 Descending Indianapolis Center
12:39AM 39.9114 -82.9314 326° Northwest 175 201 4,000 -600 Descending Indianapolis Center
12:40AM 39.9508 -82.9636 328° Northwest 171 197 3,400 -600 Descending Indianapolis Center